Corapeake, North Carolina
Current Conditions -  °F | °C
As of 3:15 AM on Monday 22 Dec 2014 (Local Time) from KSFQ Reporting Station
Overcast Overcast  
Wind Chill:   Ceiling: 4400
Heat Index:   Visibility: 7mi
Dew Point:   Wind: 10mph
Humidity: 82%   Direction: 30°NNE
Pressure: 30.23"   Gusts: NA
Location:  36.53°N, 76.58°W
Report Text: KSFQ 220815Z AUTO 03009KT 7SM OVC044 04/02 A3023 RMK AO2 T00430015
Loading
Personal Weather Stations






























Interactive Weather Map New forecast layout! Learn more

10-Day Weather Forecast

Advertisements
Track Severe Weather on mobile